Time;durP1;ratioP1;P1;durP2;ratioP2;P2;SDS_P1;SDS_P2;PMS_P1;PMS_P2;Temp;Humidity;BMP_temperature;BMP_pressure;BME280_temperature;BME280_humidity;BME280_pressure;Samples;Min_cycle;Max_cycle;Signal;HPM_P1;HPM_P2
2023/08/09 00:02:15;;;;;;;2.77;2.57;;;;;;;17.35;63.31;97827.84;5050454;28;20788;-76
2023/08/09 00:04:42;;;;;;;2.70;2.50;;;;;;;17.27;63.93;97826.38;5050227;28;20897;-75
2023/08/09 00:07:08;;;;;;;2.30;2.10;;;;;;;17.32;63.83;97826.44;5050084;28;20505;-76
2023/08/09 00:09:35;;;;;;;2.20;2.00;;;;;;;17.21;64.48;97821.91;5050321;28;20447;-76
2023/08/09 00:12:03;;;;;;;3.30;2.43;;;;;;;17.25;62.84;97816.75;5049920;28;20502;-75
2023/08/09 00:14:31;;;;;;;3.70;2.50;;;;;;;17.27;64.13;97814.59;5049604;28;20459;-76
2023/08/09 00:16:58;;;;;;;2.73;2.43;;;;;;;17.18;64.98;97816.13;5052369;28;20443;-76
2023/08/09 00:19:24;;;;;;;2.50;2.30;;;;;;;17.29;64.38;97815.16;5049879;28;20435;-76
2023/08/09 00:21:51;;;;;;;3.53;2.50;;;;;;;17.28;64.09;97808.88;5049833;28;20471;-76
2023/08/09 00:24:18;;;;;;;2.50;2.30;;;;;;;17.19;63.06;97813.13;5049868;28;20440;-76
2023/08/09 00:26:45;;;;;;;2.67;2.10;;;;;;;17.19;62.39;97818.59;5049360;28;20525;-76
2023/08/09 00:29:12;;;;;;;2.30;2.20;;;;;;;17.12;62.75;97809.72;5050081;28;20823;-77
2023/08/09 00:31:40;;;;;;;2.73;2.10;;;;;;;17.28;63.30;97816.25;5049301;28;20491;-76
2023/08/09 00:34:07;;;;;;;2.10;2.00;;;;;;;17.27;63.78;97809.94;5049696;28;20530;-76
2023/08/09 00:36:34;;;;;;;3.13;2.60;;;;;;;17.30;63.90;97803.97;5049732;28;21151;-76
2023/08/09 00:39:02;;;;;;;2.60;2.37;;;;;;;17.20;64.65;97801.13;5049711;28;20435;-76
2023/08/09 00:41:29;;;;;;;3.90;2.90;;;;;;;17.17;65.18;97798.88;5049674;28;20570;-76
2023/08/09 00:43:56;;;;;;;2.90;2.60;;;;;;;16.95;66.33;97795.22;5048972;28;20471;-76
2023/08/09 00:46:23;;;;;;;2.10;1.90;;;;;;;17.02;66.61;97801.34;5049834;28;20538;-75
2023/08/09 00:48:51;;;;;;;2.63;2.30;;;;;;;16.99;67.58;97796.38;5049622;28;20443;-76
2023/08/09 00:51:19;;;;;;;2.57;2.13;;;;;;;17.03;67.02;97797.56;5049177;28;20549;-75
2023/08/09 00:53:46;;;;;;;2.47;2.27;;;;;;;16.90;67.76;97790.50;5049201;28;20455;-76
2023/08/09 00:56:13;;;;;;;2.27;2.07;;;;;;;16.92;67.07;97795.72;5049328;28;20447;-75
2023/08/09 00:58:40;;;;;;;3.40;2.23;;;;;;;16.92;67.00;97798.44;5049468;28;20918;-75
2023/08/09 01:01:07;;;;;;;2.60;2.40;;;;;;;16.88;66.79;97800.88;5049129;28;20550;-75
2023/08/09 01:03:34;;;;;;;4.60;2.53;;;;;;;16.80;67.16;97798.56;5049184;28;20470;-75
2023/08/09 01:06:10;;;;;;;2.60;2.17;;;;;;;16.61;68.21;97797.06;5049542;28;20439;-76
2023/08/09 01:08:42;;;;;;;3.00;2.20;;;;;;;16.49;69.10;97791.69;5049541;28;20455;-76
2023/08/09 01:11:10;;;;;;;2.60;2.17;;;;;;;16.45;69.41;97804.19;5049252;28;20494;-76
2023/08/09 01:13:39;;;;;;;3.33;3.03;;;;;;;16.43;69.45;97792.69;5049141;28;20458;-75
2023/08/09 01:16:07;;;;;;;3.07;2.77;;;;;;;16.37;71.54;97794.50;5049161;28;20451;-76
2023/08/09 01:18:35;;;;;;;3.17;2.87;;;;;;;16.30;72.63;97787.50;5048797;28;20454;-75
2023/08/09 01:21:04;;;;;;;2.43;2.23;;;;;;;16.26;72.19;97789.06;5049266;28;20493;-75
2023/08/09 01:23:33;;;;;;;2.87;2.60;;;;;;;16.28;70.88;97778.72;5048595;28;20443;-75
2023/08/09 01:26:00;;;;;;;4.23;2.60;;;;;;;16.08;74.30;97782.75;5049142;28;20896;-75
2023/08/09 01:28:27;;;;;;;2.87;2.47;;;;;;;16.38;71.49;97774.28;5049138;28;20461;-75
2023/08/09 01:30:54;;;;;;;2.63;2.43;;;;;;;16.30;71.34;97776.59;5048873;28;21051;-75
2023/08/09 01:33:20;;;;;;;2.57;2.37;;;;;;;16.37;71.74;97771.81;5048716;28;20892;-75
2023/08/09 01:35:52;;;;;;;2.60;2.40;;;;;;;16.31;71.66;97770.06;5052170;28;20942;-75
2023/08/09 01:38:24;;;;;;;2.80;2.60;;;;;;;16.08;73.48;97774.56;5053229;28;20439;-75
2023/08/09 01:40:53;;;;;;;2.57;2.37;;;;;;;16.10;72.84;97777.88;5052923;28;20510;-75
2023/08/09 01:43:21;;;;;;;2.83;2.57;;;;;;;16.15;74.34;97787.25;5052698;28;20946;-75
2023/08/09 01:45:48;;;;;;;2.73;2.53;;;;;;;15.90;76.10;97784.84;5052599;28;20443;-75
2023/08/09 01:48:15;;;;;;;5.13;2.50;;;;;;;15.78;79.10;97790.34;5053004;28;20465;-75
2023/08/09 01:50:43;;;;;;;6.00;2.83;;;;;;;15.78;76.73;97790.34;5052338;28;20489;-75
2023/08/09 01:53:10;;;;;;;3.57;2.53;;;;;;;15.79;78.54;97792.00;5052968;28;20435;-75
2023/08/09 01:55:38;;;;;;;3.13;2.83;;;;;;;15.77;76.94;97794.97;5052551;28;20529;-75
2023/08/09 01:58:06;;;;;;;2.70;2.50;;;;;;;15.71;77.70;97808.72;5052769;28;20522;-75
2023/08/09 02:00:33;;;;;;;3.50;2.60;;;;;;;15.78;77.73;97812.16;5052812;28;20497;-75
2023/08/09 02:03:00;;;;;;;2.80;2.60;;;;;;;15.75;77.37;97813.47;5052724;28;20451;-75
2023/08/09 02:05:27;;;;;;;3.23;3.03;;;;;;;15.75;79.44;97812.63;5052364;28;20835;-75
2023/08/09 02:07:53;;;;;;;3.00;2.77;;;;;;;15.68;79.83;97823.69;5052560;28;20475;-75
2023/08/09 02:10:20;;;;;;;3.47;3.17;;;;;;;15.64;81.06;97821.66;5052431;28;20895;-75
2023/08/09 02:12:48;;;;;;;2.87;2.67;;;;;;;15.68;81.64;97831.03;5052121;28;20442;-75
2023/08/09 02:15:16;;;;;;;2.93;2.73;;;;;;;15.83;81.04;97820.47;5051865;28;20465;-75
2023/08/09 02:17:44;;;;;;;4.40;3.00;;;;;;;15.89;80.38;97826.84;5052429;28;20450;-75
2023/08/09 02:20:12;;;;;;;3.97;2.97;;;;;;;15.83;77.21;97815.00;5052319;28;20458;-75
2023/08/09 02:22:39;;;;;;;4.33;2.57;;;;;;;15.82;77.32;97824.25;5051957;28;20451;-75
2023/08/09 02:25:08;;;;;;;2.67;2.47;;;;;;;15.95;76.50;97823.97;5051682;28;20996;-75
2023/08/09 02:27:35;;;;;;;3.03;2.70;;;;;;;15.90;76.46;97826.63;5051817;28;20819;-74
2023/08/09 02:30:03;;;;;;;2.60;2.40;;;;;;;15.94;76.37;97825.03;5051965;28;21033;-75
2023/08/09 02:32:32;;;;;;;2.70;2.50;;;;;;;15.89;76.71;97827.69;5051882;28;20521;-74
2023/08/09 02:34:59;;;;;;;2.30;2.10;;;;;;;15.89;76.79;97827.69;5051175;28;20454;-75
2023/08/09 02:37:26;;;;;;;2.53;2.30;;;;;;;15.89;76.53;97819.50;5051058;28;20473;-74
2023/08/09 02:39:53;;;;;;;3.20;2.50;;;;;;;15.90;76.74;97820.31;5051272;28;20930;-74
2023/08/09 02:42:20;;;;;;;3.50;2.57;;;;;;;15.99;76.13;97819.69;5051804;28;20561;-74
2023/08/09 02:44:47;;;;;;;2.57;2.37;;;;;;;15.84;75.99;97813.94;5051615;28;20450;-74
2023/08/09 02:47:14;;;;;;;2.43;2.20;;;;;;;15.93;76.08;97814.34;5051407;28;20491;-74
2023/08/09 02:49:43;;;;;;;2.77;2.53;;;;;;;15.83;76.42;97812.28;5051947;28;20484;-74
2023/08/09 02:52:10;;;;;;;2.73;2.50;;;;;;;15.75;77.46;97808.00;5051398;28;20491;-74
2023/08/09 02:54:37;;;;;;;2.33;2.13;;;;;;;15.84;77.11;97811.19;5051138;28;20530;-75
2023/08/09 02:57:04;;;;;;;3.83;3.00;;;;;;;15.69;78.25;97824.50;5050956;28;20974;-74
2023/08/09 02:59:31;;;;;;;5.43;2.67;;;;;;;15.70;78.35;97815.25;5051720;28;20477;-74
2023/08/09 03:01:58;;;;;;;3.17;2.97;;;;;;;15.57;78.77;97815.53;5051340;28;20578;-74
2023/08/09 03:04:24;;;;;;;4.03;2.63;;;;;;;15.66;79.88;97825.00;5051076;28;20447;-75
2023/08/09 03:06:52;;;;;;;3.20;2.90;;;;;;;15.52;79.40;97816.22;5051258;28;20477;-74
2023/08/09 03:09:19;;;;;;;4.27;3.10;;;;;;;15.55;79.75;97815.75;5051541;28;20447;-74
2023/08/09 03:11:46;;;;;;;3.50;2.77;;;;;;;15.62;79.48;97807.44;5051144;28;20486;-74
2023/08/09 03:14:13;;;;;;;3.33;2.60;;;;;;;15.50;79.71;97809.34;5050609;28;20469;-74
2023/08/09 03:16:41;;;;;;;3.27;2.80;;;;;;;15.56;80.06;97813.84;5051020;28;20439;-74
2023/08/09 03:19:07;;;;;;;3.20;2.90;;;;;;;15.58;79.97;97807.13;5051144;28;20533;-74
2023/08/09 03:21:34;;;;;;;4.07;3.00;;;;;;;15.48;80.03;97811.47;5050614;28;20502;-74
2023/08/09 03:24:04;;;;;;;3.30;3.00;;;;;;;15.58;80.39;97815.28;5050744;28;20874;-74
2023/08/09 03:26:30;;;;;;;2.63;2.43;;;;;;;15.50;80.51;97801.16;5050696;28;20644;-75
2023/08/09 03:28:57;;;;;;;4.00;2.73;;;;;;;15.48;80.30;97808.75;5050969;28;20807;-74
2023/08/09 03:31:24;;;;;;;2.87;2.67;;;;;;;15.46;80.55;97809.81;5050440;28;21443;-74
2023/08/09 03:33:51;;;;;;;5.40;2.90;;;;;;;15.52;81.01;97805.31;5050752;28;20459;-74
2023/08/09 03:36:17;;;;;;;3.13;2.93;;;;;;;15.56;80.60;97808.38;5050659;28;20443;-74
2023/08/09 03:38:44;;;;;;;3.37;2.97;;;;;;;15.55;80.37;97809.47;5050486;28;20442;-74
2023/08/09 03:41:13;;;;;;;2.57;2.37;;;;;;;15.53;80.98;97808.88;5050344;28;20471;-74
2023/08/09 03:43:39;;;;;;;2.80;2.57;;;;;;;15.53;80.19;97811.59;5050407;28;20890;-74
2023/08/09 03:46:07;;;;;;;3.57;2.67;;;;;;;15.49;80.08;97815.88;5050767;28;20439;-74
2023/08/09 03:48:34;;;;;;;2.90;2.70;;;;;;;15.45;79.88;97810.88;5050404;28;20553;-74
2023/08/09 03:51:00;;;;;;;3.10;2.90;;;;;;;15.53;80.18;97819.78;5050391;28;20471;-74
2023/08/09 03:53:27;;;;;;;2.70;2.50;;;;;;;15.49;80.27;97821.31;5050344;28;20613;-74
2023/08/09 03:55:54;;;;;;;2.63;2.43;;;;;;;15.50;80.07;97814.78;5050253;28;20435;-74
2023/08/09 03:58:22;;;;;;;3.07;2.87;;;;;;;15.38;80.43;97817.53;5050081;28;20477;-74
2023/08/09 04:00:49;;;;;;;3.23;2.77;;;;;;;15.22;81.21;97813.63;5050181;28;20478;-74
2023/08/09 04:03:17;;;;;;;2.77;2.57;;;;;;;15.39;80.70;97820.00;5050069;28;20458;-74
2023/08/09 04:05:44;;;;;;;3.77;2.80;;;;;;;15.46;80.70;97820.72;5050023;28;20447;-74
2023/08/09 04:08:11;;;;;;;2.97;2.70;;;;;;;15.49;80.13;97824.03;5050024;28;20446;-74
2023/08/09 04:10:38;;;;;;;3.47;2.93;;;;;;;15.46;80.00;97819.91;5050193;28;20475;-74
2023/08/09 04:13:04;;;;;;;4.13;2.97;;;;;;;15.56;79.68;97819.31;5049674;28;20495;-75
2023/08/09 04:15:34;;;;;;;4.73;2.97;;;;;;;15.68;79.72;97817.41;5049772;28;20486;-74
2023/08/09 04:18:00;;;;;;;4.00;2.90;;;;;;;15.71;79.47;97815.03;5050002;28;20439;-74
2023/08/09 04:20:27;;;;;;;2.90;2.50;;;;;;;15.58;79.33;97814.47;5050026;28;20471;-74
2023/08/09 04:22:54;;;;;;;2.80;2.60;;;;;;;15.57;79.76;97810.09;5049927;28;20534;-74
2023/08/09 04:25:21;;;;;;;3.10;2.90;;;;;;;15.51;80.27;97798.19;5049452;28;20878;-73
2023/08/09 04:27:48;;;;;;;3.53;2.97;;;;;;;15.64;79.71;97805.31;5050008;28;20455;-74
2023/08/09 04:30:16;;;;;;;2.90;2.60;;;;;;;15.54;79.59;97800.44;5049628;28;20514;-75
2023/08/09 04:32:44;;;;;;;2.50;2.30;;;;;;;15.62;79.67;97801.97;5049960;28;20505;-75
2023/08/09 04:35:11;;;;;;;2.73;2.50;;;;;;;15.62;79.21;97801.97;5049738;28;20525;-75
2023/08/09 04:37:38;;;;;;;3.97;2.43;;;;;;;15.50;76.94;97801.97;5049578;28;20447;-75
2023/08/09 04:40:10;;;;;;;2.27;2.07;;;;;;;15.75;74.99;97808.00;5049553;28;20542;-74
2023/08/09 04:42:38;;;;;;;2.63;1.93;;;;;;;15.98;72.18;97804.38;5049937;28;20431;-75
2023/08/09 04:45:08;;;;;;;2.30;2.10;;;;;;;16.20;71.61;97799.09;5049141;28;20494;-75
2023/08/09 04:47:35;;;;;;;2.63;2.30;;;;;;;16.24;71.25;97799.44;5049389;28;20447;-75
2023/08/09 04:50:04;;;;;;;2.37;2.20;;;;;;;16.35;70.24;97796.63;5049486;28;20499;-74
2023/08/09 04:52:31;;;;;;;2.20;1.73;;;;;;;16.41;69.06;97797.56;5049365;28;20563;-74
2023/08/09 04:54:58;;;;;;;2.07;1.87;;;;;;;16.51;68.76;97799.66;5049106;28;21494;-74
2023/08/09 04:57:24;;;;;;;2.23;2.03;;;;;;;16.57;68.13;97799.47;5049243;28;20562;-74
2023/08/09 04:59:51;;;;;;;3.07;1.80;;;;;;;16.66;66.71;97798.03;5049525;28;20444;-74
2023/08/09 05:02:18;;;;;;;2.20;1.80;;;;;;;16.75;66.74;97793.81;5049073;28;20451;-75
2023/08/09 05:04:45;;;;;;;2.40;2.13;;;;;;;16.85;66.26;97804.09;5049060;28;20439;-74
2023/08/09 05:07:13;;;;;;;1.97;1.77;;;;;;;16.92;65.84;97790.25;5049412;28;20624;-75
2023/08/09 05:09:40;;;;;;;2.10;1.87;;;;;;;16.96;64.77;97797.72;5050721;28;20533;-74
2023/08/09 05:12:07;;;;;;;2.17;1.70;;;;;;;17.07;64.58;97793.25;5053188;28;20569;-75
2023/08/09 05:14:34;;;;;;;2.00;1.80;;;;;;;17.12;64.22;97796.06;5052949;28;20501;-75
2023/08/09 05:17:00;;;;;;;2.50;1.87;;;;;;;17.14;63.87;97793.91;5053200;28;20458;-74
2023/08/09 05:19:27;;;;;;;2.00;1.90;;;;;;;17.18;63.64;97788.75;5053455;28;20439;-75
2023/08/09 05:21:54;;;;;;;2.60;1.93;;;;;;;17.19;63.67;97795.91;5052986;28;20467;-74
2023/08/09 05:24:22;;;;;;;2.10;2.00;;;;;;;17.23;63.65;97797.03;5052844;28;20954;-74
2023/08/09 05:26:49;;;;;;;2.40;1.60;;;;;;;17.22;63.67;97792.66;5053523;28;20961;-75
2023/08/09 05:29:15;;;;;;;2.00;1.80;;;;;;;17.23;64.26;97797.03;5053000;28;20443;-75
2023/08/09 05:31:42;;;;;;;3.50;2.07;;;;;;;17.31;63.59;97804.81;5052689;28;20986;-75
2023/08/09 05:34:09;;;;;;;4.73;1.73;;;;;;;17.26;63.19;97799.25;5053146;28;20604;-75
2023/08/09 05:36:36;;;;;;;2.80;1.60;;;;;;;17.21;63.70;97794.56;5053071;28;20526;-75
2023/08/09 05:39:03;;;;;;;1.70;1.60;;;;;;;17.34;63.21;97785.16;5052623;28;20443;-74
2023/08/09 05:41:31;;;;;;;1.90;1.80;;;;;;;17.43;62.53;97795.44;5053042;28;20574;-75
2023/08/09 05:43:58;;;;;;;2.07;1.87;;;;;;;17.46;62.88;97791.38;5052864;28;20443;-75
2023/08/09 05:46:25;;;;;;;1.73;1.63;;;;;;;17.48;62.76;97793.84;5052911;28;20447;-75
2023/08/09 05:48:52;;;;;;;2.20;1.80;;;;;;;17.51;62.71;97796.91;5052328;28;20447;-75
2023/08/09 05:51:19;;;;;;;1.63;1.53;;;;;;;17.57;62.33;97798.63;5052746;28;20465;-75
2023/08/09 05:53:45;;;;;;;1.90;1.70;;;;;;;17.64;62.38;97798.44;5052139;28;20525;-75
2023/08/09 05:56:13;;;;;;;3.27;2.10;;;;;;;17.62;62.12;97803.34;5052484;28;20482;-75
2023/08/09 05:58:42;;;;;;;3.60;1.80;;;;;;;17.62;62.03;97806.91;5052753;28;20443;-75
2023/08/09 06:01:08;;;;;;;2.03;1.60;;;;;;;17.69;62.10;97812.22;5052745;28;20518;-75
2023/08/09 06:03:38;;;;;;;1.80;1.70;;;;;;;17.70;61.63;97808.41;5052253;28;20536;-74
2023/08/09 06:06:06;;;;;;;2.00;1.80;;;;;;;17.77;61.28;97817.28;5052578;28;20508;-75
2023/08/09 06:08:33;;;;;;;2.97;1.80;;;;;;;17.86;61.16;97821.22;5052677;28;20458;-75
2023/08/09 06:10:59;;;;;;;2.90;1.67;;;;;;;17.91;60.55;97826.75;5052637;28;20471;-75
2023/08/09 06:13:26;;;;;;;2.33;2.13;;;;;;;17.94;60.49;97834.47;5052384;28;20525;-75
2023/08/09 06:15:54;;;;;;;2.97;1.90;;;;;;;17.96;60.62;97835.03;5052585;28;20475;-75
2023/08/09 06:18:21;;;;;;;2.43;1.80;;;;;;;18.04;60.86;97831.84;5052344;28;20542;-75
2023/08/09 06:20:49;;;;;;;3.07;1.80;;;;;;;18.10;61.08;97841.78;5051710;28;20557;-75
2023/08/09 06:23:16;;;;;;;4.13;1.90;;;;;;;18.07;60.80;97836.81;5052261;28;20454;-75
2023/08/09 06:25:42;;;;;;;1.90;1.70;;;;;;;18.21;61.20;97831.75;5052123;28;20447;-75
2023/08/09 06:28:10;;;;;;;2.70;1.90;;;;;;;18.20;60.80;97842.97;5051840;28;20457;-75
2023/08/09 06:30:36;;;;;;;2.30;1.87;;;;;;;18.24;61.67;97846.88;5051970;28;20513;-75
2023/08/09 06:33:05;;;;;;;2.70;1.90;;;;;;;18.38;61.11;97848.13;5051931;28;20494;-75
2023/08/09 06:35:34;;;;;;;2.30;2.10;;;;;;;18.24;62.02;97841.38;5051788;28;20443;-75
2023/08/09 06:38:01;;;;;;;2.40;2.20;;;;;;;18.34;61.65;97853.31;5051820;28;20467;-75
2023/08/09 06:40:28;;;;;;;3.63;1.73;;;;;;;18.17;61.90;97849.00;5051452;28;20485;-75
2023/08/09 06:42:55;;;;;;;2.20;1.70;;;;;;;18.05;62.71;97852.69;5051923;28;20448;-75
2023/08/09 06:45:21;;;;;;;1.70;1.60;;;;;;;18.09;62.37;97853.00;5051520;28;20787;-75
2023/08/09 06:47:48;;;;;;;1.97;1.83;;;;;;;17.95;63.23;97849.81;5051778;28;20445;-75
2023/08/09 06:50:16;;;;;;;2.33;1.73;;;;;;;17.99;62.68;97853.69;5056822;28;20530;-75
2023/08/09 06:52:43;;;;;;;2.67;2.10;;;;;;;17.91;62.57;97853.31;5051670;28;20480;-75
2023/08/09 06:55:10;;;;;;;3.17;2.30;;;;;;;17.96;62.94;97856.94;5051625;28;20538;-75
2023/08/09 06:57:37;;;;;;;2.33;1.57;;;;;;;17.92;63.04;97861.25;5052073;28;20444;-75
2023/08/09 07:00:05;;;;;;;2.03;1.87;;;;;;;17.94;62.48;97861.00;5051812;28;20495;-75
2023/08/09 07:02:33;;;;;;;2.00;1.80;;;;;;;18.02;62.63;97871.53;5052150;28;20443;-75
2023/08/09 07:05:02;;;;;;;2.37;1.93;;;;;;;17.95;62.48;97874.44;5051288;28;20454;-75
2023/08/09 07:07:30;;;;;;;2.20;2.00;;;;;;;18.01;62.40;97865.22;5051589;28;20493;-75
2023/08/09 07:09:57;;;;;;;2.27;2.07;;;;;;;18.09;61.69;97883.97;5051040;28;20558;-76
2023/08/09 07:12:24;;;;;;;2.50;1.83;;;;;;;18.19;61.27;97883.28;5050938;28;20482;-75
2023/08/09 07:14:51;;;;;;;1.80;1.70;;;;;;;18.10;61.88;97887.53;5050797;28;20447;-75
2023/08/09 07:17:18;;;;;;;2.40;2.10;;;;;;;18.21;61.64;97880.25;5051181;28;20451;-76
2023/08/09 07:19:45;;;;;;;2.10;1.90;;;;;;;18.38;61.38;97889.25;5051009;28;20466;-76
2023/08/09 07:22:12;;;;;;;3.07;2.20;;;;;;;18.72;60.05;97888.03;5050893;28;20542;-75
2023/08/09 07:24:40;;;;;;;1.97;1.80;;;;;;;18.69;60.19;97896.75;5050861;28;20455;-76
2023/08/09 07:27:07;;;;;;;2.00;1.70;;;;;;;18.77;60.08;97890.00;5050908;28;20451;-76
2023/08/09 07:29:33;;;;;;;3.07;2.20;;;;;;;19.00;59.35;97888.84;5050544;28;20491;-75
2023/08/09 07:32:00;;;;;;;3.00;1.93;;;;;;;19.21;60.01;97896.16;5050337;28;20452;-75
2023/08/09 07:34:28;;;;;;;2.10;1.90;;;;;;;19.26;60.08;97893.47;5050515;28;20625;-75
2023/08/09 07:36:55;;;;;;;2.03;1.87;;;;;;;19.40;59.62;97893.88;5050834;28;20442;-75
2023/08/09 07:39:22;;;;;;;1.77;1.67;;;;;;;19.46;59.14;97892.81;5050604;28;20450;-76
2023/08/09 07:41:50;;;;;;;2.60;1.90;;;;;;;19.48;58.88;97900.78;5050729;28;20443;-75
2023/08/09 07:44:16;;;;;;;2.10;1.90;;;;;;;19.18;60.42;97904.91;5050239;28;20726;-75
2023/08/09 07:46:43;;;;;;;4.30;1.83;;;;;;;19.26;61.35;97898.94;5050634;28;20450;-76
2023/08/09 07:49:10;;;;;;;1.90;1.80;;;;;;;19.16;59.65;97912.59;5050652;28;20458;-75
2023/08/09 07:51:36;;;;;;;3.20;1.60;;;;;;;19.15;59.53;97905.47;5050168;28;20482;-75
2023/08/09 07:54:03;;;;;;;2.30;2.10;;;;;;;19.23;58.07;97913.19;5050120;28;20569;-75
2023/08/09 07:56:30;;;;;;;3.10;1.93;;;;;;;19.15;58.33;97919.19;5050136;28;20882;-76
2023/08/09 07:58:59;;;;;;;2.50;2.30;;;;;;;19.07;57.97;97920.47;5050688;28;20536;-75
2023/08/09 08:01:26;;;;;;;2.00;1.63;;;;;;;19.15;58.12;97924.66;5050096;28;20861;-75
2023/08/09 08:03:53;;;;;;;2.40;2.10;;;;;;;19.17;57.94;97921.66;5049972;28;20947;-75
2023/08/09 08:06:20;;;;;;;1.83;1.73;;;;;;;19.13;57.78;97933.16;5050286;28;20448;-75
2023/08/09 08:08:47;;;;;;;3.73;2.07;;;;;;;19.19;58.02;97936.75;5050283;28;20477;-75
2023/08/09 08:11:14;;;;;;;2.83;2.00;;;;;;;19.23;57.91;97934.31;5050009;28;20479;-75
2023/08/09 08:13:40;;;;;;;2.60;1.83;;;;;;;18.97;58.46;97920.34;5049647;28;20556;-75
2023/08/09 08:16:08;;;;;;;2.27;2.07;;;;;;;18.88;58.79;97930.13;5050049;28;20475;-76
2023/08/09 08:18:37;;;;;;;2.40;1.80;;;;;;;18.86;58.86;97936.97;5050081;28;20449;-75
2023/08/09 08:21:04;;;;;;;2.77;2.17;;;;;;;18.61;59.56;97941.06;5049147;28;20463;-75
2023/08/09 08:23:32;;;;;;;3.40;1.90;;;;;;;18.60;60.28;97949.56;5049649;28;20458;-75
2023/08/09 08:25:59;;;;;;;2.77;2.10;;;;;;;18.55;60.07;97947.53;5050135;28;20447;-75
2023/08/09 08:28:25;;;;;;;3.53;1.90;;;;;;;18.54;60.46;97956.84;5049751;28;20463;-75
2023/08/09 08:30:52;;;;;;;2.57;1.80;;;;;;;18.52;60.41;97956.28;5049890;28;20463;-75
2023/08/09 08:33:21;;;;;;;2.43;2.20;;;;;;;18.54;60.84;97967.00;5049531;28;20556;-75
2023/08/09 08:35:49;;;;;;;2.17;1.50;;;;;;;18.55;61.34;97964.00;5049694;28;20461;-75
2023/08/09 08:38:16;;;;;;;2.90;1.93;;;;;;;18.50;61.54;97972.19;5049581;28;20504;-75
2023/08/09 08:40:44;;;;;;;2.20;1.87;;;;;;;18.48;62.03;97966.13;5049203;28;20578;-75
2023/08/09 08:43:10;;;;;;;1.70;1.60;;;;;;;18.52;62.13;97958.22;5049322;28;21024;-75
2023/08/09 08:45:38;;;;;;;3.10;2.07;;;;;;;18.55;62.26;97964.00;5049483;28;20533;-75
2023/08/09 08:48:07;;;;;;;6.83;2.20;;;;;;;18.55;62.63;97964.00;5049421;28;20881;-75
2023/08/09 08:50:37;;;;;;;7.33;2.20;;;;;;;18.56;62.47;97971.13;5049267;28;20494;-75
2023/08/09 08:53:05;;;;;;;4.10;2.23;;;;;;;18.47;63.29;97972.69;5049625;28;20518;-75
2023/08/09 08:55:32;;;;;;;4.60;1.90;;;;;;;18.57;62.90;97964.56;5054011;28;20573;-75
2023/08/09 08:57:58;;;;;;;2.53;2.00;;;;;;;18.60;62.31;97969.56;5050015;28;20451;-75
2023/08/09 09:00:25;;;;;;;3.10;2.07;;;;;;;18.71;62.50;97965.88;5049963;28;20520;-75
2023/08/09 09:02:52;;;;;;;2.90;2.47;;;;;;;18.69;62.67;97969.97;5050083;28;20535;-75
2023/08/09 09:05:19;;;;;;;3.43;2.33;;;;;;;18.83;62.08;97978.63;5049582;28;20530;-75
2023/08/09 09:07:50;;;;;;;2.93;2.03;;;;;;;18.79;62.36;97973.66;5049784;28;20493;-76
2023/08/09 09:10:18;;;;;;;2.40;2.20;;;;;;;18.79;62.63;97979.16;5049508;28;21378;-75
2023/08/09 09:12:45;;;;;;;2.40;2.20;;;;;;;18.81;62.46;97975.31;5048648;28;20554;-75
2023/08/09 09:15:14;;;;;;;2.33;2.13;;;;;;;18.75;63.51;97979.91;5048637;28;20451;-75
2023/08/09 09:17:42;;;;;;;2.80;2.20;;;;;;;18.39;64.49;97981.34;5049549;28;20483;-75
2023/08/09 09:20:15;;;;;;;3.83;2.10;;;;;;;18.34;64.99;97982.09;5048461;28;20895;-75
2023/08/09 09:22:42;;;;;;;2.83;2.20;;;;;;;18.37;64.97;97983.50;5049309;28;21437;-75
2023/08/09 09:25:11;;;;;;;2.20;2.00;;;;;;;18.30;64.59;97986.41;5048839;28;20474;-75
2023/08/09 09:27:40;;;;;;;3.00;2.00;;;;;;;18.20;64.96;97990.91;5049333;28;20451;-75
2023/08/09 09:30:13;;;;;;;2.77;2.20;;;;;;;18.28;64.76;97980.34;5048857;28;20474;-75
2023/08/09 09:32:41;;;;;;;2.40;2.20;;;;;;;18.39;64.89;97981.34;5048751;28;20985;-75
2023/08/09 09:35:10;;;;;;;5.40;2.40;;;;;;;18.46;64.35;97977.34;5048730;28;20568;-76
2023/08/09 09:37:36;;;;;;;2.13;1.77;;;;;;;18.57;63.87;97983.75;5049215;28;20537;-75
2023/08/09 09:40:10;;;;;;;4.43;2.00;;;;;;;18.78;63.60;97987.63;5049000;28;20478;-75
2023/08/09 09:42:38;;;;;;;3.10;1.90;;;;;;;18.92;63.24;97991.63;5049094;28;20878;-75
2023/08/09 09:45:07;;;;;;;4.00;2.30;;;;;;;18.69;63.50;97998.22;5048488;28;21127;-75
2023/08/09 09:47:38;;;;;;;2.43;2.23;;;;;;;18.66;63.72;97979.53;5049166;28;20446;-75
2023/08/09 09:50:08;;;;;;;3.87;2.53;;;;;;;18.83;63.42;97997.84;5048965;28;20879;-75
2023/08/09 09:52:35;;;;;;;3.37;2.37;;;;;;;18.69;63.46;97986.41;5049000;28;20444;-75
2023/08/09 09:55:03;;;;;;;2.87;2.40;;;;;;;18.88;63.23;97989.63;5049439;28;20494;-75
2023/08/09 09:57:30;;;;;;;2.43;2.13;;;;;;;18.85;62.90;97993.72;5052501;28;20515;-75
2023/08/09 10:00:00;;;;;;;2.20;2.00;;;;;;;18.72;63.19;98000.44;5052812;28;20459;-75
2023/08/09 10:02:31;;;;;;;2.87;2.33;;;;;;;18.86;63.73;97997.28;5052431;28;20462;-75
2023/08/09 10:05:00;;;;;;;3.10;2.10;;;;;;;18.74;65.25;98005.69;5052717;28;20580;-75
2023/08/09 10:07:30;;;;;;;2.50;2.20;;;;;;;18.61;66.91;98006.88;5052417;28;20493;-76
2023/08/09 10:09:58;;;;;;;2.70;2.20;;;;;;;18.27;69.30;98008.00;5052635;28;20468;-76
2023/08/09 10:12:25;;;;;;;2.97;2.77;;;;;;;17.66;73.19;98020.75;5052523;28;20443;-76
2023/08/09 10:14:52;;;;;;;2.67;2.43;;;;;;;17.78;73.50;98014.13;5051844;28;20835;-76
2023/08/09 10:17:21;;;;;;;3.03;2.83;;;;;;;17.58;75.59;97993.75;5052276;28;20486;-76
2023/08/09 10:19:49;;;;;;;3.53;3.23;;;;;;;17.68;76.78;98015.88;5050997;28;20487;-77
2023/08/09 10:22:18;;;;;;;3.70;3.40;;;;;;;17.62;78.01;98017.66;5051412;28;20552;-77
2023/08/09 10:24:47;;;;;;;3.77;3.17;;;;;;;17.68;78.74;98019.44;5051824;28;20854;-77
2023/08/09 10:27:14;;;;;;;4.10;3.70;;;;;;;17.78;79.58;98021.53;5052082;28;20445;-77
2023/08/09 10:29:42;;;;;;;4.13;3.77;;;;;;;17.91;78.49;98021.16;5052283;28;20455;-77
2023/08/09 10:32:08;;;;;;;4.27;3.40;;;;;;;18.00;77.93;98016.09;5051897;28;21137;-77
2023/08/09 10:34:40;;;;;;;3.53;3.23;;;;;;;17.85;77.83;98018.63;5050735;28;20494;-77
2023/08/09 10:37:07;;;;;;;4.03;3.60;;;;;;;17.92;78.54;98025.56;5050920;28;20449;-78
2023/08/09 10:39:35;;;;;;;3.30;3.00;;;;;;;17.67;78.48;98016.94;5051870;28;20475;-79
2023/08/09 10:42:05;;;;;;;3.90;3.60;;;;;;;17.69;79.86;98020.28;5051669;28;20908;-78
2023/08/09 10:44:33;;;;;;;3.03;2.83;;;;;;;17.60;80.30;98022.53;5051558;28;20454;-79
2023/08/09 10:47:04;;;;;;;3.93;3.10;;;;;;;17.64;80.68;98031.09;5052080;28;20490;-78
2023/08/09 10:49:46;;;;;;;5.23;4.20;;;;;;;17.67;81.72;98025.16;5051785;28;20471;-78
2023/08/09 10:52:13;;;;;;;4.37;4.07;;;;;;;17.97;81.00;98022.91;5051756;28;20485;-78
2023/08/09 10:54:40;;;;;;;4.00;3.60;;;;;;;18.12;81.08;98014.94;5051231;28;20523;-78
2023/08/09 10:57:11;;;;;;;4.07;3.67;;;;;;;18.48;79.83;98014.63;5051180;28;21449;-77
2023/08/09 10:59:39;;;;;;;6.50;4.13;;;;;;;18.74;78.32;98009.25;5051698;28;20460;-77
2023/08/09 11:02:06;;;;;;;6.00;4.43;;;;;;;19.00;77.93;98021.34;5051275;28;20530;-77
2023/08/09 11:04:33;;;;;;;4.20;3.80;;;;;;;19.45;76.15;98018.28;5051230;28;20446;-77
2023/08/09 11:07:02;;;;;;;3.90;3.50;;;;;;;19.94;72.17;98022.81;5050251;28;20528;-77
2023/08/09 11:09:30;;;;;;;3.60;3.00;;;;;;;20.43;70.84;98010.56;5051110;28;21007;-77
2023/08/09 11:11:57;;;;;;;3.50;2.90;;;;;;;20.12;69.77;98015.00;5050995;28;20963;-77
2023/08/09 11:14:24;;;;;;;4.80;2.80;;;;;;;20.61;68.24;98014.78;5050551;28;20926;-76
2023/08/09 11:16:52;;;;;;;2.93;2.63;;;;;;;20.60;67.41;98013.13;5051290;28;20457;-76
2023/08/09 11:19:20;;;;;;;3.13;2.70;;;;;;;20.70;67.09;98012.34;5051123;28;21178;-76
2023/08/09 11:21:48;;;;;;;3.27;2.97;;;;;;;20.71;67.72;98011.25;5050976;28;20962;-76
2023/08/09 11:24:17;;;;;;;2.23;2.13;;;;;;;20.84;68.04;98001.66;5050759;28;20533;-76
2023/08/09 11:26:46;;;;;;;3.23;2.93;;;;;;;21.20;66.99;97999.84;5050863;28;20964;-76
2023/08/09 11:29:13;;;;;;;2.47;2.27;;;;;;;21.51;65.71;97995.25;5051142;28;20495;-75
2023/08/09 11:31:43;;;;;;;3.10;2.80;;;;;;;21.49;62.75;98001.03;5050819;28;20799;-75
2023/08/09 11:34:11;;;;;;;2.80;2.60;;;;;;;21.71;62.25;98007.13;5050583;28;20479;-76
2023/08/09 11:36:40;;;;;;;2.60;2.40;;;;;;;21.94;62.47;97994.72;5050688;28;20990;-76